createdAt,value
2018-11-11T00:00:45.886Z,51.68
2018-11-11T00:01:46.038Z,51.69
2018-11-11T00:02:46.065Z,51.64
2018-11-11T00:03:47.018Z,51.71
2018-11-11T00:04:45.568Z,51.64
2018-11-11T00:05:45.411Z,51.68
2018-11-11T00:06:45.525Z,51.72
2018-11-11T00:07:45.774Z,51.68
2018-11-11T00:08:45.334Z,51.68
2018-11-11T00:09:45.627Z,51.66
2018-11-11T00:10:45.631Z,51.67
2018-11-11T00:11:45.554Z,51.75
2018-11-11T00:12:45.547Z,51.69
2018-11-11T00:13:45.520Z,51.72
2018-11-11T00:14:45.864Z,51.73
2018-11-11T00:15:45.605Z,51.73
2018-11-11T00:16:45.401Z,51.79
2018-11-11T00:17:45.533Z,51.72
2018-11-11T00:18:45.675Z,51.73
2018-11-11T00:19:45.476Z,51.68
2018-11-11T00:20:45.633Z,51.74
2018-11-11T00:21:46.017Z,51.76
2018-11-11T00:22:45.565Z,51.78
2018-11-11T00:23:45.399Z,51.73
2018-11-11T00:24:45.525Z,51.77
2018-11-11T00:25:45.388Z,51.75
2018-11-11T00:26:45.368Z,51.78
2018-11-11T00:27:45.650Z,51.76
2018-11-11T00:28:45.945Z,51.71
2018-11-11T00:29:45.616Z,51.75
2018-11-11T00:30:45.636Z,51.76
2018-11-11T00:31:45.652Z,51.74
2018-11-11T00:32:45.986Z,51.79
2018-11-11T00:33:45.460Z,51.75
2018-11-11T00:34:45.649Z,51.71
2018-11-11T00:35:45.369Z,51.76
2018-11-11T00:36:45.978Z,51.73
2018-11-11T00:37:45.721Z,51.73
2018-11-11T00:38:45.868Z,51.74
2018-11-11T00:39:46.063Z,51.77
2018-11-11T00:40:45.654Z,51.75
2018-11-11T00:41:45.502Z,51.77
2018-11-11T00:42:45.723Z,51.74
2018-11-11T00:43:45.657Z,51.73
2018-11-11T00:44:45.451Z,51.72
2018-11-11T00:45:45.531Z,51.77
2018-11-11T00:46:45.697Z,51.78
2018-11-11T00:47:45.665Z,51.77
2018-11-11T00:48:45.506Z,51.77
2018-11-11T00:49:45.472Z,51.75
2018-11-11T00:50:45.677Z,51.73
2018-11-11T00:51:45.899Z,51.74
2018-11-11T00:52:45.706Z,51.75
2018-11-11T00:53:46.016Z,51.75
2018-11-11T00:54:45.535Z,51.78
2018-11-11T00:55:45.633Z,51.81
2018-11-11T00:56:45.851Z,51.8
2018-11-11T00:57:45.645Z,51.83
2018-11-11T00:58:45.351Z,51.81
2018-11-11T00:59:45.598Z,51.76
2018-11-11T01:00:45.528Z,51.81
2018-11-11T01:01:45.714Z,51.77
2018-11-11T01:02:45.450Z,51.77
2018-11-11T01:03:45.526Z,51.81
2018-11-11T01:04:45.628Z,51.85
2018-11-11T01:05:45.795Z,51.82
2018-11-11T01:06:45.349Z,51.83
2018-11-11T01:07:45.552Z,51.81
2018-11-11T01:08:45.576Z,51.83
2018-11-11T01:09:45.509Z,51.85
2018-11-11T01:10:45.665Z,51.84
2018-11-11T01:11:45.708Z,51.84
2018-11-11T01:12:46.012Z,51.84
2018-11-11T01:13:45.640Z,51.83
2018-11-11T01:14:45.620Z,51.84
2018-11-11T01:15:45.543Z,51.83
2018-11-11T01:16:45.608Z,51.83
2018-11-11T01:17:45.669Z,51.84
2018-11-11T01:18:45.850Z,51.82
2018-11-11T01:19:45.900Z,51.83
2018-11-11T01:20:45.432Z,51.84
2018-11-11T01:21:45.794Z,51.83
2018-11-11T01:22:46.205Z,51.9
2018-11-11T01:23:45.931Z,51.87
2018-11-11T01:24:45.816Z,51.85
2018-11-11T01:25:45.712Z,51.82
2018-11-11T01:26:45.746Z,51.84
2018-11-11T01:27:45.463Z,51.87
2018-11-11T01:28:45.913Z,51.9
2018-11-11T01:29:45.957Z,51.85
2018-11-11T01:30:45.602Z,51.83
2018-11-11T01:31:45.410Z,51.83
2018-11-11T01:32:45.661Z,51.82
2018-11-11T01:33:45.876Z,51.83
2018-11-11T01:34:45.374Z,51.84
2018-11-11T01:35:45.555Z,51.84
2018-11-11T01:36:45.511Z,51.84
2018-11-11T01:37:45.350Z,51.93
2018-11-11T01:38:45.559Z,51.9
2018-11-11T01:39:45.569Z,51.81
2018-11-11T01:40:45.511Z,51.85
2018-11-11T01:41:45.586Z,51.87
2018-11-11T01:42:46.423Z,51.87
2018-11-11T01:43:45.505Z,51.86
2018-11-11T01:44:45.459Z,51.88
2018-11-11T01:45:45.485Z,51.82
2018-11-11T01:46:45.356Z,51.87
2018-11-11T01:47:45.905Z,51.88
2018-11-11T01:48:45.433Z,51.9
2018-11-11T01:49:45.549Z,51.87
2018-11-11T01:50:45.588Z,51.83
2018-11-11T01:51:45.526Z,51.85
2018-11-11T01:52:45.465Z,51.87
2018-11-11T01:53:45.405Z,51.83
2018-11-11T01:54:45.513Z,51.87
2018-11-11T01:55:45.543Z,51.84
2018-11-11T01:56:45.586Z,51.85
2018-11-11T01:57:45.614Z,51.84
2018-11-11T01:58:45.592Z,51.85
2018-11-11T01:59:46.005Z,51.84
2018-11-11T02:00:45.442Z,51.86
2018-11-11T02:01:45.529Z,51.88
2018-11-11T02:02:45.717Z,51.9
2018-11-11T02:03:45.794Z,51.9
2018-11-11T02:04:45.813Z,51.86
2018-11-11T02:05:45.491Z,51.9
2018-11-11T02:06:45.395Z,51.84
2018-11-11T02:07:45.593Z,51.86
2018-11-11T02:08:45.584Z,51.8
2018-11-11T02:09:45.922Z,51.83
2018-11-11T02:10:45.364Z,51.89
2018-11-11T02:11:45.376Z,51.86
2018-11-11T02:12:45.624Z,51.88
2018-11-11T02:13:45.677Z,51.86
2018-11-11T02:14:45.621Z,51.87
2018-11-11T02:15:45.440Z,51.89
2018-11-11T02:16:45.783Z,51.87
2018-11-11T02:17:46.034Z,51.83
2018-11-11T02:18:45.539Z,51.89
2018-11-11T02:19:45.282Z,51.9
2018-11-11T02:20:45.420Z,51.89
2018-11-11T02:21:45.758Z,51.88
2018-11-11T02:22:46.064Z,51.87
2018-11-11T02:23:45.642Z,51.89
2018-11-11T02:24:45.667Z,51.89
2018-11-11T02:25:45.767Z,51.92
2018-11-11T02:26:45.570Z,51.87
2018-11-11T02:27:45.670Z,51.86
2018-11-11T02:28:45.381Z,51.83
2018-11-11T02:29:45.376Z,51.81
2018-11-11T02:30:45.639Z,51.87
2018-11-11T02:31:45.679Z,51.88
2018-11-11T02:32:45.466Z,51.85
2018-11-11T02:33:45.693Z,51.86
2018-11-11T02:34:45.419Z,51.86
2018-11-11T02:35:45.936Z,51.87
2018-11-11T02:36:45.632Z,51.84
2018-11-11T02:37:46.199Z,51.84
2018-11-11T02:38:45.405Z,51.87
2018-11-11T02:39:45.966Z,51.85
2018-11-11T02:40:45.839Z,51.83
2018-11-11T02:41:45.515Z,51.85
2018-11-11T02:42:45.635Z,51.8
2018-11-11T02:43:45.670Z,51.82
2018-11-11T02:44:45.662Z,51.85
2018-11-11T02:45:45.391Z,51.85
2018-11-11T02:46:45.309Z,51.87
2018-11-11T02:47:45.763Z,51.88
2018-11-11T02:48:45.959Z,51.87
2018-11-11T02:49:45.769Z,51.87
2018-11-11T02:50:45.425Z,51.82
2018-11-11T02:51:45.834Z,51.89
2018-11-11T02:52:45.631Z,51.87
2018-11-11T02:53:45.691Z,51.88
2018-11-11T02:54:45.399Z,51.9
2018-11-11T02:55:45.292Z,51.87
2018-11-11T02:56:45.393Z,51.88
2018-11-11T02:57:45.574Z,51.9
2018-11-11T02:58:45.482Z,51.83
2018-11-11T02:59:45.802Z,51.88
2018-11-11T03:00:45.823Z,51.87
2018-11-11T03:01:45.601Z,51.87
2018-11-11T03:02:45.633Z,51.87
2018-11-11T03:03:45.431Z,51.89
2018-11-11T03:04:45.355Z,51.88
2018-11-11T03:05:45.666Z,51.89
2018-11-11T03:06:45.597Z,51.88
2018-11-11T03:07:45.744Z,51.92
2018-11-11T03:08:45.784Z,51.88
2018-11-11T03:09:45.488Z,51.85
2018-11-11T03:10:45.547Z,51.86
2018-11-11T03:11:45.392Z,51.85
2018-11-11T03:12:45.457Z,51.86
2018-11-11T03:13:45.331Z,51.88
2018-11-11T03:14:45.520Z,51.82
2018-11-11T03:15:45.475Z,51.83
2018-11-11T03:16:45.489Z,51.87
2018-11-11T03:17:45.730Z,51.87
2018-11-11T03:18:45.455Z,51.84
2018-11-11T03:19:45.549Z,51.89
2018-11-11T03:20:45.649Z,51.87
2018-11-11T03:21:45.537Z,51.84
2018-11-11T03:22:45.354Z,51.89
2018-11-11T03:23:45.379Z,51.87
2018-11-11T03:24:45.556Z,51.86
2018-11-11T03:25:45.478Z,51.86
2018-11-11T03:26:45.628Z,51.84
2018-11-11T03:27:45.395Z,51.84
2018-11-11T03:28:45.542Z,51.87
2018-11-11T03:29:45.467Z,51.86
2018-11-11T03:30:45.534Z,51.87
2018-11-11T03:31:45.604Z,51.86
2018-11-11T03:32:45.615Z,51.9
2018-11-11T03:33:45.846Z,51.87
2018-11-11T03:34:45.647Z,51.85
2018-11-11T03:35:45.517Z,51.84
2018-11-11T03:36:45.333Z,51.85
2018-11-11T03:37:45.450Z,51.87
2018-11-11T03:38:45.432Z,51.85
2018-11-11T03:39:45.684Z,51.88
2018-11-11T03:40:45.358Z,51.86
2018-11-11T03:41:45.407Z,51.9
2018-11-11T03:42:45.928Z,51.86
2018-11-11T03:43:45.404Z,51.87
2018-11-11T03:44:45.605Z,51.87
2018-11-11T03:45:45.345Z,51.86
2018-11-11T03:46:45.587Z,51.88
2018-11-11T03:47:45.727Z,51.84
2018-11-11T03:48:45.768Z,51.9
2018-11-11T03:49:45.264Z,51.87
2018-11-11T03:50:45.474Z,51.87
2018-11-11T03:51:45.661Z,51.91
2018-11-11T03:52:45.503Z,51.84
2018-11-11T03:53:45.559Z,51.9
2018-11-11T03:54:45.422Z,51.84
2018-11-11T03:55:45.539Z,51.89
2018-11-11T03:56:45.787Z,51.87
2018-11-11T03:57:45.441Z,51.88
2018-11-11T03:58:46.211Z,51.94
2018-11-11T03:59:45.844Z,51.89
2018-11-11T04:00:45.782Z,51.87
2018-11-11T04:01:45.453Z,51.9
2018-11-11T04:02:45.599Z,51.86
2018-11-11T04:03:45.313Z,51.87
2018-11-11T04:04:45.828Z,51.84
2018-11-11T04:05:45.358Z,51.89
2018-11-11T04:06:45.793Z,51.89
2018-11-11T04:07:45.429Z,51.91
2018-11-11T04:08:45.885Z,51.91
2018-11-11T04:09:45.914Z,51.88
2018-11-11T04:10:45.408Z,51.89
2018-11-11T04:11:45.684Z,51.93
2018-11-11T04:12:45.669Z,51.91
2018-11-11T04:13:45.939Z,51.93
2018-11-11T04:14:45.481Z,51.87
2018-11-11T04:15:45.548Z,51.9
2018-11-11T04:16:45.517Z,51.87
2018-11-11T04:17:45.743Z,51.95
2018-11-11T04:18:45.588Z,51.96
2018-11-11T04:19:45.433Z,51.86
2018-11-11T04:20:45.345Z,51.9
2018-11-11T04:21:45.864Z,51.92
2018-11-11T04:22:45.526Z,51.87
2018-11-11T04:23:45.502Z,51.87
2018-11-11T04:24:45.617Z,51.9
2018-11-11T04:25:45.325Z,51.89
2018-11-11T04:26:45.807Z,51.89
2018-11-11T04:27:45.391Z,51.91
2018-11-11T04:28:45.534Z,51.83
2018-11-11T04:29:45.623Z,51.89
2018-11-11T04:30:45.623Z,51.89
2018-11-11T04:31:45.661Z,51.87
2018-11-11T04:32:45.472Z,51.84
2018-11-11T04:33:45.787Z,51.86
2018-11-11T04:34:45.334Z,51.91
2018-11-11T04:35:45.541Z,51.9
2018-11-11T04:36:45.481Z,51.86
2018-11-11T04:37:45.435Z,51.86
2018-11-11T04:38:45.365Z,51.87
2018-11-11T04:39:45.347Z,51.86
2018-11-11T04:40:45.546Z,51.87
2018-11-11T04:41:45.593Z,51.84
2018-11-11T04:42:45.565Z,51.86
2018-11-11T04:43:45.309Z,51.87
2018-11-11T04:44:45.505Z,51.89
2018-11-11T04:45:45.497Z,51.84
2018-11-11T04:46:45.746Z,51.82
2018-11-11T04:47:45.392Z,51.84
2018-11-11T04:48:45.486Z,51.87
2018-11-11T04:49:45.653Z,51.89
2018-11-11T04:50:45.334Z,51.86
2018-11-11T04:51:45.494Z,51.83
2018-11-11T04:52:45.887Z,51.84
2018-11-11T04:53:45.512Z,51.83
2018-11-11T04:54:45.270Z,51.88
2018-11-11T04:55:45.615Z,51.86
2018-11-11T04:56:45.282Z,51.89
2018-11-11T04:57:45.254Z,51.85
2018-11-11T04:58:45.533Z,51.86
2018-11-11T04:59:45.507Z,51.81
2018-11-11T05:00:45.763Z,51.83
2018-11-11T05:01:45.279Z,51.84
2018-11-11T05:02:45.767Z,51.81
2018-11-11T05:03:45.323Z,51.8
2018-11-11T05:04:45.873Z,51.75
2018-11-11T05:05:45.688Z,51.78
2018-11-11T05:06:45.261Z,51.75
2018-11-11T05:07:45.583Z,51.69
2018-11-11T05:08:45.261Z,51.73
2018-11-11T05:09:45.417Z,51.71
2018-11-11T05:10:45.630Z,51.75
2018-11-11T05:11:45.347Z,51.73
2018-11-11T05:12:45.532Z,51.7
2018-11-11T05:13:45.651Z,51.67
2018-11-11T05:14:45.555Z,51.66
2018-11-11T05:15:45.244Z,51.69
2018-11-11T05:16:45.537Z,51.68
2018-11-11T05:17:45.392Z,51.64
2018-11-11T05:18:45.455Z,51.64
2018-11-11T05:19:45.254Z,51.6
2018-11-11T05:20:45.456Z,51.64
2018-11-11T05:21:46.312Z,51.62
2018-11-11T05:22:45.634Z,51.6
2018-11-11T05:23:45.993Z,51.59
2018-11-11T05:24:45.377Z,51.6
2018-11-11T05:25:45.464Z,51.57
2018-11-11T05:26:45.577Z,51.62
2018-11-11T05:27:45.615Z,51.62
2018-11-11T05:28:45.629Z,51.6
2018-11-11T05:29:45.468Z,51.61
2018-11-11T05:30:45.598Z,51.58
2018-11-11T05:31:45.700Z,51.56
2018-11-11T05:32:45.468Z,51.58
2018-11-11T05:33:45.560Z,51.58
2018-11-11T05:34:45.495Z,51.61
2018-11-11T05:35:45.300Z,51.71
2018-11-11T05:36:45.377Z,51.63
2018-11-11T05:37:45.528Z,51.65
2018-11-11T05:38:45.822Z,51.61
2018-11-11T05:39:45.508Z,51.61
2018-11-11T05:40:45.314Z,51.63
2018-11-11T05:41:45.941Z,51.6
2018-11-11T05:42:46.841Z,51.64
2018-11-11T05:43:45.798Z,51.65
2018-11-11T05:44:45.599Z,51.77
2018-11-11T05:45:45.730Z,51.7
2018-11-11T05:46:45.228Z,51.68
2018-11-11T05:47:45.212Z,51.77
2018-11-11T05:48:45.544Z,51.79
2018-11-11T05:49:45.475Z,51.77
2018-11-11T05:50:45.564Z,51.76
2018-11-11T05:51:45.248Z,51.72
2018-11-11T05:52:45.990Z,51.68
2018-11-11T05:53:45.308Z,51.78
2018-11-11T05:54:45.337Z,51.73
2018-11-11T05:55:45.506Z,51.74
2018-11-11T05:56:45.439Z,51.69
2018-11-11T05:57:45.429Z,51.69
2018-11-11T05:58:45.413Z,51.68
2018-11-11T05:59:45.857Z,51.7
2018-11-11T06:00:45.430Z,51.69
2018-11-11T06:01:45.662Z,51.72
2018-11-11T06:02:45.747Z,51.68
2018-11-11T06:03:45.465Z,51.68
2018-11-11T06:04:45.236Z,51.67
2018-11-11T06:05:45.595Z,51.79
2018-11-11T06:06:45.804Z,51.69
2018-11-11T06:07:45.399Z,51.65
2018-11-11T06:08:45.537Z,51.7
2018-11-11T06:09:45.261Z,51.64
2018-11-11T06:10:45.519Z,51.73
2018-11-11T06:11:45.289Z,51.67
2018-11-11T06:12:45.696Z,51.68
2018-11-11T06:13:45.574Z,51.7
2018-11-11T06:14:45.207Z,51.72
2018-11-11T06:15:45.539Z,51.64
2018-11-11T06:16:46.059Z,51.6
2018-11-11T06:17:45.479Z,51.67
2018-11-11T06:18:45.402Z,51.67
2018-11-11T06:19:45.402Z,51.62
2018-11-11T06:20:45.244Z,51.66
2018-11-11T06:21:45.468Z,51.62
2018-11-11T06:22:45.482Z,51.61
2018-11-11T06:23:45.414Z,51.63
2018-11-11T06:24:45.527Z,51.62
2018-11-11T06:25:45.376Z,51.63
2018-11-11T06:26:45.510Z,51.6
2018-11-11T06:27:45.386Z,51.61
2018-11-11T06:28:45.988Z,51.61
2018-11-11T06:29:45.337Z,51.63
2018-11-11T06:30:45.542Z,51.73
2018-11-11T06:31:45.254Z,51.64
2018-11-11T06:32:45.214Z,51.59
2018-11-11T06:33:45.358Z,51.65
2018-11-11T06:34:45.644Z,51.66
2018-11-11T06:35:45.825Z,51.65
2018-11-11T06:36:45.705Z,51.72
2018-11-11T06:37:45.580Z,51.64
2018-11-11T06:38:45.424Z,51.61
2018-11-11T06:39:45.770Z,51.59
2018-11-11T06:40:45.724Z,51.55
2018-11-11T06:41:45.240Z,51.59
2018-11-11T06:42:45.228Z,51.58
2018-11-11T06:43:45.740Z,51.54
2018-11-11T06:44:45.475Z,51.59
2018-11-11T06:45:45.667Z,51.55
2018-11-11T06:46:45.702Z,51.58
2018-11-11T06:47:45.321Z,51.59
2018-11-11T06:48:45.538Z,51.56
2018-11-11T06:49:45.626Z,51.62
2018-11-11T06:50:45.228Z,51.51
2018-11-11T06:51:45.459Z,51.5
2018-11-11T06:52:45.446Z,51.53
2018-11-11T06:53:45.541Z,51.52
2018-11-11T06:54:45.622Z,51.51
2018-11-11T06:55:45.668Z,51.49
2018-11-11T06:56:45.501Z,51.52
2018-11-11T06:57:45.667Z,51.46
2018-11-11T06:58:45.674Z,51.47
2018-11-11T06:59:45.444Z,51.5
2018-11-11T07:00:45.296Z,51.46
2018-11-11T07:01:45.626Z,51.45
2018-11-11T07:02:45.535Z,51.48
2018-11-11T07:03:45.602Z,51.51
2018-11-11T07:04:45.935Z,51.5
2018-11-11T07:05:45.446Z,51.49
2018-11-11T07:06:45.322Z,51.51
2018-11-11T07:07:45.224Z,51.57
2018-11-11T07:08:45.217Z,51.52
2018-11-11T07:09:45.433Z,51.42
2018-11-11T07:10:45.551Z,51.45
2018-11-11T07:11:45.874Z,51.47
2018-11-11T07:12:45.370Z,51.42
2018-11-11T07:13:45.951Z,51.48
2018-11-11T07:14:45.266Z,51.48
2018-11-11T07:15:45.801Z,51.46
2018-11-11T07:16:45.229Z,51.49
2018-11-11T07:17:45.371Z,51.39
2018-11-11T07:18:45.705Z,51.54
2018-11-11T07:19:45.463Z,51.46
2018-11-11T07:20:45.271Z,51.47
2018-11-11T07:21:45.398Z,51.48
2018-11-11T07:22:45.825Z,51.41
2018-11-11T07:23:45.797Z,51.5
2018-11-11T07:24:45.305Z,51.52
2018-11-11T07:25:45.182Z,51.44
2018-11-11T07:26:45.447Z,51.43
2018-11-11T07:27:45.777Z,51.44
2018-11-11T07:28:45.686Z,51.46
2018-11-11T07:29:45.733Z,51.52
2018-11-11T07:30:45.386Z,51.5
2018-11-11T07:31:45.818Z,51.44
2018-11-11T07:32:45.226Z,51.42
2018-11-11T07:33:45.608Z,51.5
2018-11-11T07:34:45.222Z,51.45
2018-11-11T07:35:45.374Z,51.42
2018-11-11T07:36:45.945Z,51.41
2018-11-11T07:37:45.288Z,51.45
2018-11-11T07:38:45.412Z,51.47
2018-11-11T07:39:45.434Z,51.39
2018-11-11T07:40:45.456Z,51.48
2018-11-11T07:41:45.460Z,51.47
2018-11-11T07:42:45.364Z,51.51
2018-11-11T07:43:45.197Z,51.38
2018-11-11T07:44:45.261Z,51.41
2018-11-11T07:45:45.320Z,51.42
2018-11-11T07:46:45.305Z,51.46
2018-11-11T07:47:45.607Z,51.51
2018-11-11T07:48:45.321Z,51.46
2018-11-11T07:49:45.355Z,51.44
2018-11-11T07:50:45.233Z,51.44
2018-11-11T07:51:45.651Z,51.4
2018-11-11T07:52:45.304Z,51.4
2018-11-11T07:53:45.304Z,51.34
2018-11-11T07:54:45.708Z,51.36
2018-11-11T07:55:45.465Z,51.44
2018-11-11T07:56:45.395Z,51.46
2018-11-11T07:57:45.365Z,51.41
2018-11-11T07:58:45.415Z,51.42
2018-11-11T07:59:45.303Z,51.41
2018-11-11T08:00:45.615Z,51.42
2018-11-11T08:01:45.672Z,51.4
2018-11-11T08:02:45.645Z,51.41
2018-11-11T08:03:45.578Z,51.4
2018-11-11T08:04:45.622Z,51.39
2018-11-11T08:05:45.434Z,51.39
2018-11-11T08:06:45.247Z,51.36
2018-11-11T08:07:45.330Z,51.35
2018-11-11T08:08:45.661Z,51.4
2018-11-11T08:09:45.440Z,51.37
2018-11-11T08:10:45.784Z,51.44
2018-11-11T08:11:45.307Z,51.44
2018-11-11T08:12:45.460Z,51.4
2018-11-11T08:13:45.396Z,51.41
2018-11-11T08:14:45.748Z,51.37
2018-11-11T08:15:45.599Z,51.33
2018-11-11T08:16:45.490Z,51.4
2018-11-11T08:17:45.193Z,51.36
2018-11-11T08:18:46.042Z,51.29
2018-11-11T08:19:45.275Z,51.46
2018-11-11T08:20:45.230Z,51.33
2018-11-11T08:21:45.432Z,51.48
2018-11-11T08:22:45.394Z,51.37
2018-11-11T08:23:45.632Z,51.39
2018-11-11T08:24:45.301Z,51.39
2018-11-11T08:25:45.321Z,51.43
2018-11-11T08:26:45.325Z,51.39
2018-11-11T08:27:45.779Z,51.4
2018-11-11T08:28:45.663Z,51.41
2018-11-11T08:29:45.128Z,51.36
2018-11-11T08:30:45.628Z,51.43
2018-11-11T08:31:45.644Z,51.33
2018-11-11T08:32:45.431Z,51.33
2018-11-11T08:33:45.334Z,51.38
2018-11-11T08:34:45.549Z,51.35
2018-11-11T08:35:45.355Z,51.28
2018-11-11T08:36:45.649Z,51.34
2018-11-11T08:37:45.492Z,51.34
2018-11-11T08:38:45.176Z,51.38
2018-11-11T08:39:45.886Z,51.31
2018-11-11T08:40:45.323Z,51.36
2018-11-11T08:41:45.750Z,51.39
2018-11-11T08:42:45.611Z,51.38
2018-11-11T08:43:45.609Z,51.34
2018-11-11T08:44:45.322Z,51.37
2018-11-11T08:45:45.426Z,51.38
2018-11-11T08:46:45.527Z,51.33
2018-11-11T08:47:45.128Z,51.3
2018-11-11T08:48:45.506Z,51.42
2018-11-11T08:49:45.366Z,51.43
2018-11-11T08:50:45.507Z,51.41
2018-11-11T08:51:45.763Z,51.4
2018-11-11T08:52:45.579Z,51.34
2018-11-11T08:53:45.398Z,51.33
2018-11-11T08:54:45.842Z,51.4
2018-11-11T08:55:45.307Z,51.32
2018-11-11T08:56:45.125Z,51.38
2018-11-11T08:57:45.782Z,51.33
2018-11-11T08:58:45.302Z,51.33
2018-11-11T08:59:45.470Z,51.3
2018-11-11T09:00:45.423Z,51.34
2018-11-11T09:01:45.308Z,51.35
2018-11-11T09:02:45.248Z,51.31
2018-11-11T09:03:45.561Z,51.27
2018-11-11T09:04:45.359Z,51.36
2018-11-11T09:05:45.175Z,51.29
2018-11-11T09:06:45.717Z,51.36
2018-11-11T09:07:45.578Z,51.35
2018-11-11T09:08:45.675Z,51.32
2018-11-11T09:09:45.707Z,51.3
2018-11-11T09:10:45.506Z,51.33
2018-11-11T09:11:45.297Z,51.33
2018-11-11T09:12:45.372Z,51.33
2018-11-11T09:13:45.211Z,51.26
2018-11-11T09:14:45.217Z,51.32
2018-11-11T09:15:45.315Z,51.35
2018-11-11T09:16:45.329Z,51.37
2018-11-11T09:17:45.477Z,51.36
2018-11-11T09:18:45.384Z,51.27
2018-11-11T09:19:45.213Z,51.25
2018-11-11T09:20:45.472Z,51.37
2018-11-11T09:21:45.412Z,51.34
2018-11-11T09:22:45.270Z,51.29
2018-11-11T09:23:45.373Z,51.34
2018-11-11T09:24:45.589Z,51.35
2018-11-11T09:25:45.596Z,51.25
2018-11-11T09:26:45.225Z,51.34
2018-11-11T09:27:45.269Z,51.38
2018-11-11T09:28:45.519Z,51.36
2018-11-11T09:29:46.141Z,51.43
2018-11-11T09:30:45.329Z,51.31
2018-11-11T09:31:45.599Z,51.35
2018-11-11T09:32:45.366Z,51.32
2018-11-11T09:33:45.457Z,51.29
2018-11-11T09:34:45.296Z,51.3
2018-11-11T09:35:45.157Z,51.33
2018-11-11T09:36:45.540Z,51.31
2018-11-11T09:37:45.499Z,51.29
2018-11-11T09:38:45.742Z,51.3
2018-11-11T09:39:45.707Z,51.25
2018-11-11T09:40:45.213Z,51.33
2018-11-11T09:41:45.811Z,51.32
2018-11-11T09:42:45.264Z,51.29
2018-11-11T09:43:45.207Z,51.32
2018-11-11T09:44:45.237Z,51.28
2018-11-11T09:45:45.650Z,51.36
2018-11-11T09:46:45.400Z,51.28
2018-11-11T09:47:45.650Z,51.37
2018-11-11T09:48:45.445Z,51.29
2018-11-11T09:49:45.331Z,51.3
2018-11-11T09:50:45.560Z,51.34
2018-11-11T09:51:45.884Z,51.3
2018-11-11T09:52:45.592Z,51.32
2018-11-11T09:53:45.702Z,51.32
2018-11-11T09:54:45.382Z,51.35
2018-11-11T09:55:45.794Z,51.22
2018-11-11T09:56:45.719Z,51.28
2018-11-11T09:57:45.754Z,51.39
2018-11-11T09:58:45.475Z,51.31
2018-11-11T09:59:45.818Z,51.34
2018-11-11T10:00:45.684Z,51.32
2018-11-11T10:01:45.603Z,51.34
2018-11-11T10:02:45.322Z,51.3
2018-11-11T10:03:45.479Z,51.28
2018-11-11T10:04:45.809Z,51.25
2018-11-11T10:05:45.374Z,51.32
2018-11-11T10:06:45.671Z,51.26
2018-11-11T10:07:45.935Z,51.36
2018-11-11T10:08:45.418Z,51.3
2018-11-11T10:09:45.589Z,51.21
2018-11-11T10:10:45.158Z,51.29
2018-11-11T10:11:45.383Z,51.27
2018-11-11T10:12:45.620Z,51.28
2018-11-11T10:13:45.346Z,51.29
2018-11-11T10:14:45.584Z,51.26
2018-11-11T10:15:45.349Z,51.33
2018-11-11T10:16:45.302Z,51.36
2018-11-11T10:17:45.203Z,51.32
2018-11-11T10:18:45.598Z,51.31
2018-11-11T10:19:45.563Z,51.29
2018-11-11T10:20:45.628Z,51.33
2018-11-11T10:21:45.631Z,51.24
2018-11-11T10:22:45.196Z,51.33
2018-11-11T10:23:45.392Z,51.32
2018-11-11T10:24:45.211Z,51.31
2018-11-11T10:25:45.359Z,51.3
2018-11-11T10:26:45.306Z,51.28
2018-11-11T10:27:45.264Z,51.34
2018-11-11T10:28:45.589Z,51.29
2018-11-11T10:29:45.491Z,51.31
2018-11-11T10:30:45.630Z,51.34
2018-11-11T10:31:45.374Z,51.5
2018-11-11T10:32:45.260Z,51.75
2018-11-11T10:33:45.120Z,51.71
2018-11-11T10:34:45.491Z,51.92
2018-11-11T10:35:45.739Z,52.01
2018-11-11T10:36:45.431Z,52.24
2018-11-11T10:37:45.250Z,52.27
2018-11-11T10:38:45.388Z,52.22
2018-11-11T10:39:45.286Z,52.2
2018-11-11T10:40:45.739Z,52.26
2018-11-11T10:41:45.367Z,52.2
2018-11-11T10:42:45.424Z,52.22
2018-11-11T10:43:45.217Z,52.25
2018-11-11T10:44:45.294Z,52.39
2018-11-11T10:45:45.131Z,52.28
2018-11-11T10:46:45.574Z,52.31
2018-11-11T10:47:45.223Z,52.41
2018-11-11T10:48:45.239Z,52.38
2018-11-11T10:49:45.205Z,52.51
2018-11-11T10:50:45.284Z,52.46
2018-11-11T10:51:45.132Z,52.63
2018-11-11T10:52:45.351Z,52.67
2018-11-11T10:53:45.918Z,52.6
2018-11-11T10:54:45.286Z,52.67
2018-11-11T10:55:45.347Z,52.56
2018-11-11T10:56:45.307Z,52.57
2018-11-11T10:57:45.312Z,52.63
2018-11-11T10:58:45.441Z,52.69
2018-11-11T10:59:45.662Z,52.57
2018-11-11T11:00:45.087Z,52.52
2018-11-11T11:01:45.335Z,52.59
2018-11-11T11:02:45.348Z,52.56
2018-11-11T11:03:45.217Z,52.55
2018-11-11T11:04:45.471Z,52.68
2018-11-11T11:05:45.151Z,52.62
2018-11-11T11:06:45.619Z,52.6
2018-11-11T11:07:45.496Z,52.64
2018-11-11T11:08:45.262Z,52.66
2018-11-11T11:09:45.207Z,52.63
2018-11-11T11:10:45.724Z,52.68
2018-11-11T11:11:45.641Z,52.65
2018-11-11T11:12:45.247Z,52.77
2018-11-11T11:13:45.807Z,52.7
2018-11-11T11:14:45.122Z,52.75
2018-11-11T11:15:45.247Z,52.7
2018-11-11T11:16:45.735Z,52.61
2018-11-11T11:17:45.492Z,52.67
2018-11-11T11:18:45.426Z,52.61
2018-11-11T11:19:45.654Z,52.62
2018-11-11T11:20:45.853Z,52.59
2018-11-11T11:21:45.171Z,52.57
2018-11-11T11:22:45.654Z,52.77
2018-11-11T11:23:45.238Z,52.69
2018-11-11T11:24:45.214Z,52.7
2018-11-11T11:25:45.477Z,52.64
2018-11-11T11:26:45.315Z,52.65
2018-11-11T11:27:45.297Z,52.64
2018-11-11T11:28:46.029Z,52.65
2018-11-11T11:29:45.342Z,52.76
2018-11-11T11:30:45.325Z,52.59
2018-11-11T11:31:46.243Z,52.65
2018-11-11T11:32:45.243Z,52.65
2018-11-11T11:33:45.237Z,52.68
2018-11-11T11:34:45.508Z,52.58
2018-11-11T11:35:46.104Z,52.5
2018-11-11T11:36:45.272Z,52.38
2018-11-11T11:37:45.523Z,52.59
2018-11-11T11:38:45.130Z,52.62
2018-11-11T11:39:45.332Z,52.66
2018-11-11T11:40:45.587Z,52.62
2018-11-11T11:41:45.576Z,52.64
2018-11-11T11:42:45.465Z,52.49
2018-11-11T11:43:45.289Z,52.56
2018-11-11T11:44:45.759Z,52.45
2018-11-11T11:45:45.890Z,52.48
2018-11-11T11:46:45.595Z,52.48
2018-11-11T11:47:45.826Z,52.49
2018-11-11T11:48:45.240Z,52.59
2018-11-11T11:49:45.293Z,52.41
2018-11-11T11:50:45.692Z,52.52
2018-11-11T11:51:45.813Z,52.37
2018-11-11T11:52:45.360Z,52.37
2018-11-11T11:53:45.722Z,52.45
2018-11-11T11:54:45.376Z,52.52
2018-11-11T11:55:45.408Z,52.51
2018-11-11T11:56:45.104Z,52.45
2018-11-11T11:57:45.317Z,52.44
2018-11-11T11:58:45.611Z,52.45
2018-11-11T11:59:45.149Z,52.39
2018-11-11T12:00:45.370Z,52.46
2018-11-11T12:01:45.488Z,52.46
2018-11-11T12:02:45.632Z,52.43
2018-11-11T12:03:45.423Z,52.39
2018-11-11T12:04:45.270Z,52.43
2018-11-11T12:05:45.142Z,52.29
2018-11-11T12:06:45.530Z,52.38
2018-11-11T12:07:45.570Z,52.33
2018-11-11T12:08:45.717Z,52.33
2018-11-11T12:09:45.196Z,52.36
2018-11-11T12:10:45.392Z,52.35
2018-11-11T12:11:45.831Z,52.3
2018-11-11T12:12:45.912Z,52.31
2018-11-11T12:13:45.169Z,52.28
2018-11-11T12:14:45.607Z,52.17
2018-11-11T12:15:45.230Z,52.21
2018-11-11T12:16:45.593Z,52.14
2018-11-11T12:17:45.100Z,52.16
2018-11-11T12:18:45.328Z,52.1
2018-11-11T12:19:45.492Z,52.2
2018-11-11T12:20:45.445Z,52.13
2018-11-11T12:21:45.092Z,52.12
2018-11-11T12:22:45.418Z,52.18
2018-11-11T12:23:45.128Z,52.08
2018-11-11T12:24:45.167Z,52.1
2018-11-11T12:25:45.381Z,52.04
2018-11-11T12:26:45.310Z,52.02
2018-11-11T12:27:45.262Z,52.05
2018-11-11T12:28:45.201Z,52.09
2018-11-11T12:29:45.354Z,52
2018-11-11T12:30:45.354Z,52.05
2018-11-11T12:31:45.637Z,52.07
2018-11-11T12:32:45.212Z,52.02
2018-11-11T12:33:45.223Z,51.96
2018-11-11T12:34:45.274Z,52.03
2018-11-11T12:35:45.322Z,52.06
2018-11-11T12:36:45.690Z,51.94
2018-11-11T12:37:45.282Z,51.97
2018-11-11T12:38:45.444Z,51.97
2018-11-11T12:39:45.600Z,52.02
2018-11-11T12:40:45.167Z,52.02
2018-11-11T12:41:45.487Z,51.94
2018-11-11T12:42:45.428Z,51.92
2018-11-11T12:43:45.265Z,51.96
2018-11-11T12:44:45.428Z,51.95
2018-11-11T12:45:45.316Z,51.92
2018-11-11T12:46:46.148Z,51.94
2018-11-11T12:47:45.285Z,51.87
2018-11-11T12:48:45.377Z,51.98
2018-11-11T12:49:45.704Z,51.87
2018-11-11T12:50:45.372Z,51.9
2018-11-11T12:51:45.482Z,51.91
2018-11-11T12:52:45.293Z,51.83
2018-11-11T12:53:45.264Z,51.86
2018-11-11T12:54:45.367Z,51.85
2018-11-11T12:55:46.093Z,51.85